Impacts TAF Board INFO
FOR SITUATIONAL AWARENESS. NOT TO BE USED FOR FLIGHT PLANNING PURPOSES.
IDs:

KANB - Anniston Metro, AL, US

Issued at 0520 UTC 16 Aug 2018
Updated at 1026 UTC 16 Aug 2018
Potential Impact None Slight Moderate High
Time<<16/23Z 17/00Z 17/01Z 17/02Z 17/03Z 17/04Z 17/05Z 17/06Z 17/07Z 17/08Z 17/09Z 17/10Z 17/11Z>>
Type PRVL PRVL PRVL PRVL PRVL PRVL PRVL
VIS >6 >6 >6 >6 >6 >6 >6
CIG -- -- -- -- -- -- --
Cover SCT SCT SCT SCT SCT SCT SCT
FltCat VFR VFR VFR VFR VFR VFR VFR
WX -- -- -- -- -- -- --
WDir 200 200 200 200 200 200 200
WSpd 6 6 6 6 6 6 6
WGst -- -- -- -- -- -- --

Raw TAF
KANB 160520Z 1606/1706 00000KT P6SM FEW250
  FM160900 00000KT 4SM BR SCT250
  TEMPO 1609/1613 1SM BR BKN003
  FM161500 20006KT P6SM SCT050 SCT250


METAR Board
Radar Display
Forecast Discussion

FOR SITUATIONAL AWARENESS. NOT TO BE USED FOR FLIGHT PLANNING PURPOSES.